createdAt,value
2019-01-06T00:01:39.180Z,8.73
2019-01-06T00:04:40.527Z,8.63
2019-01-06T00:07:28.313Z,7.60
2019-01-06T00:10:16.103Z,7.07
2019-01-06T00:13:17.236Z,8.47
2019-01-06T00:16:09.120Z,5.40
2019-01-06T00:18:56.753Z,6.63
2019-01-06T00:21:45.873Z,6.73
2019-01-06T00:24:33.501Z,6.33
2019-01-06T00:27:28.694Z,6.50
2019-01-06T00:30:16.673Z,6.57
2019-01-06T00:32:58.847Z,6.10
2019-01-06T00:35:53.810Z,4.80
2019-01-06T00:38:57.954Z,6.10
2019-01-06T00:42:02.225Z,6.33
2019-01-06T00:44:49.987Z,5.80
2019-01-06T00:47:37.734Z,6.37
2019-01-06T00:50:25.445Z,7.13
2019-01-06T00:53:13.364Z,5.37
2019-01-06T00:56:09.629Z,5.67
2019-01-06T00:58:57.201Z,6.33
2019-01-06T01:01:58.598Z,5.43
2019-01-06T01:04:46.163Z,5.77
2019-01-06T01:07:28.551Z,5.30
2019-01-06T01:10:17.592Z,5.90
2019-01-06T01:13:06.417Z,5.13
2019-01-06T01:16:04.638Z,5.00
2019-01-06T01:18:53.942Z,5.57
2019-01-06T01:21:55.691Z,5.60
2019-01-06T01:24:44.862Z,5.40
2019-01-06T01:27:37.174Z,5.33
2019-01-06T01:30:39.573Z,5.27
2019-01-06T01:33:37.605Z,5.17
2019-01-06T01:36:37.948Z,5.93
2019-01-06T01:39:34.259Z,5.80
2019-01-06T01:42:22.590Z,5.63
2019-01-06T01:45:11.677Z,6.70
2019-01-06T01:48:18.830Z,6.20
2019-01-06T01:51:06.873Z,5.90
2019-01-06T01:53:55.977Z,6.20
2019-01-06T01:56:44.381Z,5.73
2019-01-06T01:59:36.334Z,4.73
2019-01-06T02:02:24.359Z,5.60
2019-01-06T02:05:22.289Z,5.57
2019-01-06T02:08:10.327Z,6.30
2019-01-06T02:11:05.641Z,5.83
2019-01-06T02:14:00.769Z,6.17
2019-01-06T02:16:48.496Z,6.27
2019-01-06T02:19:43.718Z,6.00
2019-01-06T02:22:35.961Z,6.10
2019-01-06T02:25:25.297Z,6.33
2019-01-06T02:28:20.771Z,5.50
2019-01-06T02:31:08.743Z,5.83
2019-01-06T02:34:04.034Z,6.73
2019-01-06T02:37:12.240Z,7.20
2019-01-06T02:40:03.501Z,21.07
2019-01-06T02:43:04.475Z,18.50
2019-01-06T02:45:52.530Z,7.67
2019-01-06T02:48:40.330Z,6.53
2019-01-06T02:51:28.548Z,8.40
2019-01-06T02:54:20.234Z,7.17
2019-01-06T02:57:11.566Z,7.90
2019-01-06T03:00:10.145Z,7.80
2019-01-06T03:03:05.282Z,6.20
2019-01-06T03:06:06.571Z,14.37
2019-01-06T03:08:55.776Z,5.97
2019-01-06T03:11:44.066Z,5.57
2019-01-06T03:14:36.355Z,5.37
2019-01-06T03:17:24.134Z,5.57
2019-01-06T03:20:15.952Z,5.70
2019-01-06T03:23:05.307Z,5.20
2019-01-06T03:25:53.169Z,5.27
2019-01-06T03:28:42.444Z,6.03
2019-01-06T03:31:37.704Z,5.50
2019-01-06T03:34:21.806Z,4.77
2019-01-06T03:37:15.087Z,5.13
2019-01-06T03:40:07.167Z,4.90
2019-01-06T03:42:56.391Z,6.20
2019-01-06T03:45:46.270Z,4.27
2019-01-06T03:48:37.594Z,5.00
2019-01-06T03:51:25.981Z,4.27
2019-01-06T03:54:15.532Z,4.77
2019-01-06T03:57:07.490Z,5.00
2019-01-06T03:59:51.967Z,5.40
2019-01-06T04:02:33.341Z,5.77
2019-01-06T04:05:25.811Z,4.70
2019-01-06T04:08:13.852Z,4.90
2019-01-06T04:11:02.948Z,5.00
2019-01-06T04:14:04.633Z,4.80
2019-01-06T04:16:52.612Z,4.50
2019-01-06T04:19:40.283Z,4.90
2019-01-06T04:22:28.373Z,4.70
2019-01-06T04:25:17.303Z,3.80
2019-01-06T04:28:12.446Z,4.47
2019-01-06T04:31:13.712Z,4.53
2019-01-06T04:34:11.882Z,5.00
2019-01-06T04:37:01.162Z,5.13
2019-01-06T04:40:08.327Z,5.03
2019-01-06T04:42:46.661Z,4.63
2019-01-06T04:45:35.754Z,4.80
2019-01-06T04:48:18.236Z,5.03
2019-01-06T04:51:02.918Z,5.17
2019-01-06T04:53:54.847Z,5.57
2019-01-06T04:56:47.333Z,6.37
2019-01-06T04:59:42.280Z,5.27
2019-01-06T05:02:30.867Z,5.40
2019-01-06T05:05:28.945Z,5.10
2019-01-06T05:08:16.490Z,5.00
2019-01-06T05:11:04.373Z,5.10
2019-01-06T05:13:44.127Z,5.10
2019-01-06T05:16:31.933Z,5.60
2019-01-06T05:19:36.128Z,5.73
2019-01-06T05:22:43.528Z,5.47
2019-01-06T05:25:32.685Z,4.93
2019-01-06T05:28:20.215Z,5.63
2019-01-06T05:31:18.314Z,5.80
2019-01-06T05:34:10.489Z,5.40
2019-01-06T05:36:54.699Z,4.63
2019-01-06T05:39:50.794Z,5.23
2019-01-06T05:42:54.883Z,5.17
2019-01-06T05:45:42.676Z,6.00
2019-01-06T05:48:37.830Z,5.57
2019-01-06T05:51:40.716Z,5.50
2019-01-06T05:54:30.889Z,5.47
2019-01-06T05:57:18.511Z,4.90
2019-01-06T06:00:07.611Z,4.67
2019-01-06T06:02:57.690Z,3.47
2019-01-06T06:05:58.994Z,4.30
2019-01-06T06:08:34.145Z,4.17
2019-01-06T06:11:21.832Z,4.37
2019-01-06T06:14:09.681Z,4.33
2019-01-06T06:16:47.622Z,4.67
2019-01-06T06:19:35.450Z,4.60
2019-01-06T06:22:24.657Z,4.97
2019-01-06T06:25:32.124Z,4.63
2019-01-06T06:28:33.445Z,5.10
2019-01-06T06:31:34.390Z,4.23
2019-01-06T06:34:19.306Z,5.00
2019-01-06T06:37:14.518Z,4.63
2019-01-06T06:40:06.558Z,4.97
2019-01-06T06:43:04.704Z,3.90
2019-01-06T06:45:55.520Z,3.20
2019-01-06T06:48:47.368Z,3.60
2019-01-06T06:51:37.017Z,3.37
2019-01-06T06:54:26.377Z,3.83
2019-01-06T06:57:55.245Z,3.60
2019-01-06T07:00:58.698Z,3.90
2019-01-06T07:03:49.445Z,3.63
2019-01-06T07:06:53.454Z,3.87
2019-01-06T07:09:54.510Z,4.20
2019-01-06T07:12:41.981Z,4.40
2019-01-06T07:15:33.859Z,4.30
2019-01-06T07:18:35.410Z,4.80
2019-01-06T07:21:23.235Z,4.33
2019-01-06T07:24:18.246Z,4.80
2019-01-06T07:27:19.473Z,5.07
2019-01-06T07:30:07.019Z,5.50
2019-01-06T07:32:56.188Z,4.40
2019-01-06T07:35:43.770Z,6.10
2019-01-06T07:38:51.947Z,6.07
2019-01-06T07:41:39.426Z,5.10
2019-01-06T07:44:27.142Z,4.80
2019-01-06T07:47:25.571Z,6.90
2019-01-06T07:50:23.890Z,5.60
2019-01-06T07:53:12.102Z,6.23
2019-01-06T07:56:00.021Z,5.03
2019-01-06T07:58:52.234Z,5.37
2019-01-06T08:01:53.496Z,5.50
2019-01-06T08:04:33.253Z,5.97
2019-01-06T08:07:21.011Z,5.73
2019-01-06T08:10:09.015Z,5.87
2019-01-06T08:12:59.185Z,6.33
2019-01-06T08:15:59.151Z,7.17
2019-01-06T08:18:46.581Z,10.57
2019-01-06T08:21:53.754Z,13.90
2019-01-06T08:24:52.002Z,9.23
2019-01-06T08:27:59.033Z,9.97
2019-01-06T08:30:46.480Z,8.67
2019-01-06T08:33:43.026Z,6.50
2019-01-06T08:36:35.910Z,6.90
2019-01-06T08:39:24.357Z,7.90
2019-01-06T08:42:11.919Z,7.53
2019-01-06T08:45:06.770Z,6.67
2019-01-06T08:47:56.027Z,6.17
2019-01-06T08:50:54.406Z,7.27
2019-01-06T08:53:36.276Z,7.27
2019-01-06T08:56:28.842Z,9.77
2019-01-06T08:59:17.953Z,6.10
2019-01-06T09:02:06.451Z,9.03
2019-01-06T09:04:55.550Z,9.83
2019-01-06T09:07:44.715Z,7.70
2019-01-06T09:10:28.930Z,7.30
2019-01-06T09:13:16.859Z,8.57
2019-01-06T09:16:21.073Z,6.70
2019-01-06T09:19:09.354Z,8.63
2019-01-06T09:21:57.342Z,12.90
2019-01-06T09:24:45.171Z,9.00
2019-01-06T09:27:33.145Z,7.87
2019-01-06T09:30:33.718Z,8.20
2019-01-06T09:33:25.964Z,7.43
2019-01-06T09:36:21.193Z,6.47
2019-01-06T09:39:09.162Z,7.23
2019-01-06T09:42:04.114Z,7.13
2019-01-06T09:45:05.305Z,10.10
2019-01-06T09:48:09.872Z,9.07
2019-01-06T09:50:59.229Z,10.73
2019-01-06T09:53:48.329Z,10.80
2019-01-06T09:56:57.658Z,13.30
2019-01-06T09:59:55.895Z,11.07
2019-01-06T10:03:12.699Z,11.40
2019-01-06T10:06:04.038Z,9.23
2019-01-06T10:08:55.447Z,7.27
2019-01-06T10:11:43.412Z,8.03
2019-01-06T10:14:36.913Z,8.40
2019-01-06T10:17:44.774Z,10.47
2019-01-06T10:20:44.869Z,9.77
2019-01-06T10:23:37.406Z,9.03
2019-01-06T10:26:25.261Z,9.70
2019-01-06T10:29:13.646Z,11.90
2019-01-06T10:32:02.864Z,8.97
2019-01-06T10:35:09.550Z,8.00
2019-01-06T10:37:59.086Z,8.40
2019-01-06T10:40:47.354Z,7.03
2019-01-06T10:43:46.406Z,6.10
2019-01-06T10:46:35.497Z,5.97
2019-01-06T10:49:22.878Z,4.97
2019-01-06T10:52:10.506Z,6.77
2019-01-06T10:54:58.655Z,9.47
2019-01-06T10:57:50.754Z,8.37
2019-01-06T11:00:58.153Z,6.90
2019-01-06T11:03:50.719Z,7.43
2019-01-06T11:06:38.253Z,6.93
2019-01-06T11:09:19.074Z,7.30
2019-01-06T11:12:07.014Z,7.80
2019-01-06T11:15:20.162Z,12.17
2019-01-06T11:18:21.543Z,9.20
2019-01-06T11:21:28.361Z,7.70
2019-01-06T11:24:25.755Z,8.27
2019-01-06T11:27:14.815Z,7.67
2019-01-06T11:30:16.396Z,7.57
2019-01-06T11:33:04.809Z,6.27
2019-01-06T11:36:00.413Z,10.47
2019-01-06T11:39:00.639Z,10.93
2019-01-06T11:41:52.969Z,7.90
2019-01-06T11:44:50.993Z,8.37
2019-01-06T11:47:29.836Z,6.67
2019-01-06T11:50:34.228Z,7.67
2019-01-06T11:53:21.747Z,7.47
2019-01-06T11:56:17.022Z,8.13
2019-01-06T11:59:14.973Z,8.07
2019-01-06T12:02:09.737Z,8.10
2019-01-06T12:05:03.141Z,7.20
2019-01-06T12:08:05.751Z,8.17
2019-01-06T12:10:53.714Z,8.60
2019-01-06T12:13:45.966Z,8.47
2019-01-06T12:16:33.466Z,8.77
2019-01-06T12:19:21.171Z,8.27
2019-01-06T12:22:10.478Z,8.70
2019-01-06T12:25:11.763Z,8.40
2019-01-06T12:28:15.962Z,7.20
2019-01-06T12:30:59.119Z,7.23
2019-01-06T12:33:48.787Z,8.37
2019-01-06T12:36:54.029Z,7.60
2019-01-06T12:39:55.394Z,7.27
2019-01-06T12:42:45.329Z,7.07
2019-01-06T12:45:43.318Z,7.70
2019-01-06T12:48:38.621Z,6.70
2019-01-06T12:51:21.362Z,7.27
2019-01-06T12:54:13.254Z,7.70
2019-01-06T12:57:02.522Z,8.27
2019-01-06T13:00:01.411Z,8.27
2019-01-06T13:02:53.777Z,8.67
2019-01-06T13:05:40.361Z,10.00
2019-01-06T13:08:29.745Z,8.17
2019-01-06T13:11:37.027Z,9.17
2019-01-06T13:14:38.490Z,10.73
2019-01-06T13:17:27.673Z,9.47
2019-01-06T13:20:26.079Z,10.80
2019-01-06T13:23:15.288Z,9.87
2019-01-06T13:26:03.970Z,9.27
2019-01-06T13:28:56.073Z,10.67
2019-01-06T13:31:45.160Z,11.13
2019-01-06T13:34:34.320Z,11.50
2019-01-06T13:37:29.569Z,8.73
2019-01-06T13:40:18.925Z,11.77
2019-01-06T13:43:14.306Z,13.87
2019-01-06T13:46:02.345Z,13.40
2019-01-06T13:48:51.503Z,11.97
2019-01-06T13:51:46.661Z,11.47
2019-01-06T13:54:35.868Z,10.00
2019-01-06T13:57:40.196Z,17.40
2019-01-06T14:00:41.557Z,8.47
2019-01-06T14:03:29.266Z,7.43
2019-01-06T14:06:23.197Z,8.33
2019-01-06T14:09:10.998Z,7.50
2019-01-06T14:11:54.586Z,8.63
2019-01-06T14:14:42.325Z,11.50
2019-01-06T14:17:29.974Z,12.43
2019-01-06T14:20:18.078Z,9.27
2019-01-06T14:23:16.026Z,9.33
2019-01-06T14:26:04.739Z,10.33
2019-01-06T14:29:08.935Z,10.00
2019-01-06T14:31:56.734Z,9.27
2019-01-06T14:35:05.205Z,12.87
2019-01-06T14:37:57.191Z,12.13
2019-01-06T14:40:46.433Z,12.70
2019-01-06T14:43:34.311Z,13.60
2019-01-06T14:46:38.670Z,14.27
2019-01-06T14:49:32.575Z,13.53
2019-01-06T14:52:20.438Z,11.73
2019-01-06T14:55:24.474Z,12.20
2019-01-06T14:58:12.274Z,13.43
2019-01-06T15:01:10.542Z,14.67
2019-01-06T15:03:59.696Z,17.47
2019-01-06T15:06:47.331Z,19.80
2019-01-06T15:09:39.781Z,22.13
2019-01-06T15:12:20.636Z,23.63
2019-01-06T15:15:08.242Z,24.57
2019-01-06T15:17:56.297Z,27.17
2019-01-06T15:20:45.486Z,28.37
2019-01-06T15:23:44.418Z,28.20
2019-01-06T15:26:32.799Z,28.40
2019-01-06T15:29:20.640Z,27.10
2019-01-06T15:32:08.569Z,26.80
2019-01-06T15:35:10.238Z,27.63
2019-01-06T15:37:59.410Z,43.33
2019-01-06T15:40:51.069Z,40.53
2019-01-06T15:43:40.294Z,33.13
2019-01-06T15:46:29.562Z,31.70
2019-01-06T15:49:30.858Z,34.23
2019-01-06T15:52:34.833Z,37.53
2019-01-06T15:55:27.130Z,39.40
2019-01-06T15:58:22.334Z,45.50
2019-01-06T16:01:23.626Z,45.97
2019-01-06T16:04:11.626Z,44.03
2019-01-06T16:07:09.842Z,42.67
2019-01-06T16:10:01.958Z,44.73
2019-01-06T16:12:47.116Z,46.33
2019-01-06T16:15:51.811Z,45.33
2019-01-06T16:18:31.254Z,43.67
2019-01-06T16:21:35.065Z,43.43
2019-01-06T16:24:33.394Z,40.50
2019-01-06T16:27:21.858Z,40.57
2019-01-06T16:30:09.490Z,45.87
2019-01-06T16:33:15.304Z,60.23
2019-01-06T16:35:59.883Z,60.17
2019-01-06T16:38:47.442Z,67.53
2019-01-06T16:41:45.597Z,83.20
2019-01-06T16:44:34.937Z,101.97
2019-01-06T16:47:33.181Z,104.20
2019-01-06T16:50:21.215Z,74.50
2019-01-06T16:53:08.741Z,69.97
2019-01-06T16:55:56.814Z,70.40
2019-01-06T16:58:52.536Z,72.13
2019-01-06T17:01:40.089Z,74.67
2019-01-06T17:04:38.176Z,69.37
2019-01-06T17:07:26.381Z,68.30
2019-01-06T17:10:15.875Z,65.47
2019-01-06T17:13:10.874Z,64.57
2019-01-06T17:15:58.878Z,66.03
2019-01-06T17:18:45.254Z,64.70
2019-01-06T17:21:37.510Z,67.43
2019-01-06T17:24:38.967Z,71.73
2019-01-06T17:27:27.747Z,67.77
2019-01-06T17:30:15.906Z,66.50
2019-01-06T17:33:12.861Z,62.83
2019-01-06T17:36:00.861Z,65.20
2019-01-06T17:38:50.455Z,66.93
2019-01-06T17:41:38.310Z,65.43
2019-01-06T17:44:39.611Z,73.10
2019-01-06T17:47:23.615Z,80.70
2019-01-06T17:50:18.535Z,84.33
2019-01-06T17:53:05.675Z,73.50
2019-01-06T17:55:53.486Z,71.27
2019-01-06T17:58:40.961Z,75.33
2019-01-06T18:01:41.654Z,72.57
2019-01-06T18:04:42.967Z,73.27
2019-01-06T18:07:30.849Z,74.13
2019-01-06T18:10:21.908Z,71.60
2019-01-06T18:13:12.173Z,71.30
2019-01-06T18:16:00.114Z,71.57
2019-01-06T18:18:55.082Z,69.30
2019-01-06T18:21:50.021Z,68.10
2019-01-06T18:24:45.211Z,69.63
2019-01-06T18:27:29.717Z,73.37
2019-01-06T18:30:18.826Z,70.83
2019-01-06T18:33:13.610Z,77.53
2019-01-06T18:36:01.481Z,74.97
2019-01-06T18:38:49.136Z,76.57
2019-01-06T18:41:37.050Z,71.27
2019-01-06T18:44:26.394Z,69.70
2019-01-06T18:47:24.434Z,68.47
2019-01-06T18:50:16.774Z,68.23
2019-01-06T18:53:12.030Z,69.70
2019-01-06T18:56:01.057Z,70.07
2019-01-06T18:59:04.922Z,70.67
2019-01-06T19:01:59.064Z,74.23
2019-01-06T19:05:13.408Z,73.63
2019-01-06T19:08:57.705Z,88.27
2019-01-06T19:12:10.152Z,96.10
2019-01-06T19:15:06.996Z,89.40
2019-01-06T19:17:56.214Z,87.93
2019-01-06T19:20:43.986Z,87.53
2019-01-06T19:23:39.416Z,92.00
2019-01-06T19:26:31.574Z,90.47
2019-01-06T19:29:19.191Z,81.97
2019-01-06T19:32:11.651Z,80.87
2019-01-06T19:35:15.902Z,85.60
2019-01-06T19:38:08.624Z,82.57
2019-01-06T19:40:56.558Z,77.13
2019-01-06T19:43:57.978Z,86.80
2019-01-06T19:46:51.213Z,98.93
2019-01-06T19:49:46.187Z,95.20
2019-01-06T19:52:49.268Z,102.00
2019-01-06T19:55:56.874Z,98.93
2019-01-06T19:59:04.557Z,87.90
2019-01-06T20:01:53.321Z,85.10
2019-01-06T20:04:41.338Z,83.30
2019-01-06T20:07:45.693Z,86.80
2019-01-06T20:10:40.623Z,77.57
2019-01-06T20:13:32.777Z,82.70
2019-01-06T20:16:32.152Z,81.30
2019-01-06T20:19:11.357Z,79.87
2019-01-06T20:22:01.841Z,78.37
2019-01-06T20:25:06.047Z,85.87
2019-01-06T20:27:56.042Z,86.47
2019-01-06T20:31:00.049Z,86.50
2019-01-06T20:33:47.610Z,94.60
2019-01-06T20:36:35.677Z,104.27
2019-01-06T20:39:28.718Z,101.67
2019-01-06T20:42:23.779Z,101.20
2019-01-06T20:45:11.450Z,133.33
2019-01-06T20:48:01.325Z,159.53
2019-01-06T20:50:50.671Z,157.57
2019-01-06T20:53:38.530Z,160.50
2019-01-06T20:56:26.390Z,154.87
2019-01-06T20:59:15.664Z,175.67
2019-01-06T21:02:20.913Z,161.53
2019-01-06T21:05:25.218Z,163.30
2019-01-06T21:08:14.482Z,131.17
2019-01-06T21:11:03.594Z,136.83
2019-01-06T21:13:51.294Z,130.47
2019-01-06T21:16:38.979Z,128.17
2019-01-06T21:19:28.290Z,123.30
2019-01-06T21:22:29.450Z,126.13
2019-01-06T21:25:30.488Z,113.30
2019-01-06T21:28:26.533Z,93.40
2019-01-06T21:31:14.038Z,94.03
2019-01-06T21:34:09.330Z,90.63
2019-01-06T21:36:58.522Z,93.67
2019-01-06T21:39:50.707Z,88.17
2019-01-06T21:42:38.435Z,87.23
2019-01-06T21:45:30.913Z,92.67
2019-01-06T21:48:35.091Z,93.67
2019-01-06T21:51:26.266Z,92.57
2019-01-06T21:54:14.002Z,85.47
2019-01-06T21:57:09.042Z,90.07
2019-01-06T21:59:56.578Z,89.57
2019-01-06T22:02:53.534Z,87.27
2019-01-06T22:05:57.507Z,94.07
2019-01-06T22:08:49.660Z,88.47
2019-01-06T22:11:32.768Z,85.30
2019-01-06T22:14:28.091Z,97.40
2019-01-06T22:17:15.917Z,116.30
2019-01-06T22:20:04.870Z,113.50
2019-01-06T22:23:01.093Z,126.67
2019-01-06T22:25:50.139Z,133.73
2019-01-06T22:28:43.763Z,129.60
2019-01-06T22:31:38.984Z,132.40
2019-01-06T22:34:31.085Z,126.27
2019-01-06T22:37:18.910Z,127.03
2019-01-06T22:40:23.269Z,111.87
2019-01-06T22:43:24.340Z,97.60
2019-01-06T22:46:22.194Z,72.73
2019-01-06T22:49:21.213Z,73.40
2019-01-06T22:52:25.732Z,74.33
2019-01-06T22:55:13.253Z,76.83
2019-01-06T22:58:00.797Z,74.87
2019-01-06T23:01:03.338Z,74.33
2019-01-06T23:03:42.525Z,73.00
2019-01-06T23:06:44.140Z,77.23
2019-01-06T23:09:31.194Z,78.63
2019-01-06T23:12:19.003Z,78.87
2019-01-06T23:15:06.579Z,83.83
2019-01-06T23:17:55.770Z,83.77
2019-01-06T23:20:44.872Z,91.10
2019-01-06T23:23:43.461Z,91.13
2019-01-06T23:26:33.748Z,90.40
2019-01-06T23:29:26.382Z,86.00
2019-01-06T23:32:14.174Z,86.93
2019-01-06T23:35:02.410Z,87.23
2019-01-06T23:37:48.116Z,86.10
2019-01-06T23:40:55.564Z,84.87
2019-01-06T23:43:44.777Z,86.87
2019-01-06T23:46:32.453Z,83.83
2019-01-06T23:49:37.566Z,83.27
2019-01-06T23:52:44.778Z,77.37
2019-01-06T23:55:32.601Z,76.57
2019-01-06T23:58:20.255Z,80.37
